sensor_id;sensor_type;location;lat;lon;timestamp;P1;durP1;ratioP1;P2;durP2;ratioP2
11608;SDS011;5860;52.018;8.536;2022-08-01T00:00:05;9.30;;;7.17;;
11608;SDS011;5860;52.018;8.536;2022-08-01T00:02:35;7.20;;;6.50;;
11608;SDS011;5860;52.018;8.536;2022-08-01T00:05:04;7.60;;;6.90;;
11608;SDS011;5860;52.018;8.536;2022-08-01T00:07:32;8.73;;;6.83;;
11608;SDS011;5860;52.018;8.536;2022-08-01T00:10:00;7.13;;;6.53;;
11608;SDS011;5860;52.018;8.536;2022-08-01T00:12:28;10.10;;;6.27;;
11608;SDS011;5860;52.018;8.536;2022-08-01T00:14:55;7.50;;;6.73;;
11608;SDS011;5860;52.018;8.536;2022-08-01T00:17:22;8.67;;;5.97;;
11608;SDS011;5860;52.018;8.536;2022-08-01T00:19:49;7.50;;;6.80;;
11608;SDS011;5860;52.018;8.536;2022-08-01T00:22:15;9.93;;;6.67;;
11608;SDS011;5860;52.018;8.536;2022-08-01T00:24:42;9.60;;;6.57;;
11608;SDS011;5860;52.018;8.536;2022-08-01T00:27:09;6.83;;;6.20;;
11608;SDS011;5860;52.018;8.536;2022-08-01T00:29:36;8.67;;;6.87;;
11608;SDS011;5860;52.018;8.536;2022-08-01T00:32:23;8.40;;;6.70;;
11608;SDS011;5860;52.018;8.536;2022-08-01T00:34:50;8.30;;;6.60;;
11608;SDS011;5860;52.018;8.536;2022-08-01T00:37:17;8.83;;;7.30;;
11608;SDS011;5860;52.018;8.536;2022-08-01T00:39:44;9.03;;;7.57;;
11608;SDS011;5860;52.018;8.536;2022-08-01T00:42:11;8.60;;;7.47;;
11608;SDS011;5860;52.018;8.536;2022-08-01T00:44:39;8.97;;;7.53;;
11608;SDS011;5860;52.018;8.536;2022-08-01T00:47:06;8.77;;;7.87;;
11608;SDS011;5860;52.018;8.536;2022-08-01T00:49:33;10.23;;;8.27;;
11608;SDS011;5860;52.018;8.536;2022-08-01T00:52:01;10.30;;;8.43;;
11608;SDS011;5860;52.018;8.536;2022-08-01T00:54:31;10.63;;;8.47;;
11608;SDS011;5860;52.018;8.536;2022-08-01T00:56:59;11.40;;;9.43;;
11608;SDS011;5860;52.018;8.536;2022-08-01T00:59:26;12.33;;;9.77;;
11608;SDS011;5860;52.018;8.536;2022-08-01T01:01:53;10.73;;;9.27;;
11608;SDS011;5860;52.018;8.536;2022-08-01T01:04:21;10.70;;;9.63;;
11608;SDS011;5860;52.018;8.536;2022-08-01T01:06:52;10.93;;;9.83;;
11608;SDS011;5860;52.018;8.536;2022-08-01T01:12:13;13.57;;;10.03;;
11608;SDS011;5860;52.018;8.536;2022-08-01T01:14:56;13.83;;;10.03;;
11608;SDS011;5860;52.018;8.536;2022-08-01T01:18:00;12.20;;;9.50;;
11608;SDS011;5860;52.018;8.536;2022-08-01T01:20:41;13.73;;;10.00;;
11608;SDS011;5860;52.018;8.536;2022-08-01T01:29:17;12.50;;;9.47;;
11608;SDS011;5860;52.018;8.536;2022-08-01T01:32:04;12.40;;;9.30;;
11608;SDS011;5860;52.018;8.536;2022-08-01T01:34:43;13.50;;;10.57;;
11608;SDS011;5860;52.018;8.536;2022-08-01T01:37:13;12.00;;;9.63;;
11608;SDS011;5860;52.018;8.536;2022-08-01T01:39:43;12.67;;;9.60;;
11608;SDS011;5860;52.018;8.536;2022-08-01T01:42:19;9.50;;;8.43;;
11608;SDS011;5860;52.018;8.536;2022-08-01T01:44:48;10.47;;;8.93;;
11608;SDS011;5860;52.018;8.536;2022-08-01T01:47:16;9.53;;;7.67;;
11608;SDS011;5860;52.018;8.536;2022-08-01T01:49:44;12.10;;;8.00;;
11608;SDS011;5860;52.018;8.536;2022-08-01T01:52:13;10.57;;;8.53;;
11608;SDS011;5860;52.018;8.536;2022-08-01T01:54:44;9.53;;;7.27;;
11608;SDS011;5860;52.018;8.536;2022-08-01T01:57:14;8.20;;;7.40;;
11608;SDS011;5860;52.018;8.536;2022-08-01T01:59:42;7.23;;;6.53;;
11608;SDS011;5860;52.018;8.536;2022-08-01T02:02:12;8.70;;;6.67;;
11608;SDS011;5860;52.018;8.536;2022-08-01T02:04:42;9.20;;;5.83;;
11608;SDS011;5860;52.018;8.536;2022-08-01T02:07:11;8.13;;;6.23;;
11608;SDS011;5860;52.018;8.536;2022-08-01T02:09:43;7.13;;;5.30;;
11608;SDS011;5860;52.018;8.536;2022-08-01T02:12:13;6.23;;;5.63;;
11608;SDS011;5860;52.018;8.536;2022-08-01T02:14:42;5.60;;;5.00;;
11608;SDS011;5860;52.018;8.536;2022-08-01T02:17:15;5.50;;;4.40;;
11608;SDS011;5860;52.018;8.536;2022-08-01T02:19:43;5.97;;;4.73;;
11608;SDS011;5860;52.018;8.536;2022-08-01T02:22:11;6.17;;;4.57;;
11608;SDS011;5860;52.018;8.536;2022-08-01T02:28:19;7.47;;;4.27;;
11608;SDS011;5860;52.018;8.536;2022-08-01T02:30:21;4.47;;;3.93;;
11608;SDS011;5860;52.018;8.536;2022-08-01T02:32:53;5.07;;;3.90;;
11608;SDS011;5860;52.018;8.536;2022-08-01T02:35:28;5.13;;;3.80;;
11608;SDS011;5860;52.018;8.536;2022-08-01T02:37:58;4.00;;;3.60;;
11608;SDS011;5860;52.018;8.536;2022-08-01T02:40:28;3.63;;;3.33;;
11608;SDS011;5860;52.018;8.536;2022-08-01T02:42:59;4.73;;;3.23;;
11608;SDS011;5860;52.018;8.536;2022-08-01T02:45:28;5.20;;;3.50;;
11608;SDS011;5860;52.018;8.536;2022-08-01T02:48:01;3.97;;;3.30;;
11608;SDS011;5860;52.018;8.536;2022-08-01T02:50:35;3.90;;;3.17;;
11608;SDS011;5860;52.018;8.536;2022-08-01T02:53:04;3.90;;;3.23;;
11608;SDS011;5860;52.018;8.536;2022-08-01T02:55:36;4.63;;;3.33;;
11608;SDS011;5860;52.018;8.536;2022-08-01T02:58:06;5.43;;;3.30;;
11608;SDS011;5860;52.018;8.536;2022-08-01T03:00:38;8.03;;;3.73;;
11608;SDS011;5860;52.018;8.536;2022-08-01T03:03:06;3.97;;;3.40;;
11608;SDS011;5860;52.018;8.536;2022-08-01T03:05:35;5.40;;;3.37;;
11608;SDS011;5860;52.018;8.536;2022-08-01T03:08:03;3.80;;;3.40;;
11608;SDS011;5860;52.018;8.536;2022-08-01T03:10:40;3.53;;;3.23;;
11608;SDS011;5860;52.018;8.536;2022-08-01T03:13:11;4.03;;;3.20;;
11608;SDS011;5860;52.018;8.536;2022-08-01T03:15:41;7.13;;;3.60;;
11608;SDS011;5860;52.018;8.536;2022-08-01T03:18:09;4.00;;;3.23;;
11608;SDS011;5860;52.018;8.536;2022-08-01T03:20:38;3.93;;;3.30;;
11608;SDS011;5860;52.018;8.536;2022-08-01T03:23:06;7.07;;;3.10;;
11608;SDS011;5860;52.018;8.536;2022-08-01T03:25:36;3.60;;;3.30;;
11608;SDS011;5860;52.018;8.536;2022-08-01T03:28:06;4.83;;;3.47;;
11608;SDS011;5860;52.018;8.536;2022-08-01T03:30:34;3.67;;;3.20;;
11608;SDS011;5860;52.018;8.536;2022-08-01T03:33:04;4.30;;;3.77;;
11608;SDS011;5860;52.018;8.536;2022-08-01T03:35:33;5.30;;;4.10;;
11608;SDS011;5860;52.018;8.536;2022-08-01T03:38:04;4.40;;;3.93;;
11608;SDS011;5860;52.018;8.536;2022-08-01T03:40:45;5.67;;;4.47;;
11608;SDS011;5860;52.018;8.536;2022-08-01T03:43:16;4.53;;;4.13;;
11608;SDS011;5860;52.018;8.536;2022-08-01T03:46:04;5.80;;;4.30;;
11608;SDS011;5860;52.018;8.536;2022-08-01T03:48:35;5.40;;;4.37;;
11608;SDS011;5860;52.018;8.536;2022-08-01T03:51:05;4.90;;;4.30;;
11608;SDS011;5860;52.018;8.536;2022-08-01T03:53:34;5.53;;;4.83;;
11608;SDS011;5860;52.018;8.536;2022-08-01T03:56:07;5.60;;;4.90;;
11608;SDS011;5860;52.018;8.536;2022-08-01T03:58:36;5.10;;;4.63;;
11608;SDS011;5860;52.018;8.536;2022-08-01T04:01:06;6.30;;;5.30;;
11608;SDS011;5860;52.018;8.536;2022-08-01T04:03:41;6.57;;;5.53;;
11608;SDS011;5860;52.018;8.536;2022-08-01T04:06:08;5.90;;;5.30;;
11608;SDS011;5860;52.018;8.536;2022-08-01T04:08:37;8.50;;;5.83;;
11608;SDS011;5860;52.018;8.536;2022-08-01T04:11:05;8.53;;;5.63;;
11608;SDS011;5860;52.018;8.536;2022-08-01T04:13:33;6.33;;;5.30;;
11608;SDS011;5860;52.018;8.536;2022-08-01T04:16:03;6.67;;;5.00;;
11608;SDS011;5860;52.018;8.536;2022-08-01T04:18:30;6.50;;;5.80;;
11608;SDS011;5860;52.018;8.536;2022-08-01T04:20:58;6.83;;;5.57;;
11608;SDS011;5860;52.018;8.536;2022-08-01T04:23:25;5.83;;;5.30;;
11608;SDS011;5860;52.018;8.536;2022-08-01T04:25:53;6.60;;;5.90;;
11608;SDS011;5860;52.018;8.536;2022-08-01T04:28:21;8.07;;;6.27;;
11608;SDS011;5860;52.018;8.536;2022-08-01T04:30:50;6.90;;;6.20;;
11608;SDS011;5860;52.018;8.536;2022-08-01T04:33:26;8.13;;;6.23;;
11608;SDS011;5860;52.018;8.536;2022-08-01T04:35:56;7.43;;;6.63;;
11608;SDS011;5860;52.018;8.536;2022-08-01T04:38:30;8.10;;;7.30;;
11608;SDS011;5860;52.018;8.536;2022-08-01T04:40:59;7.33;;;6.27;;
11608;SDS011;5860;52.018;8.536;2022-08-01T04:43:34;7.73;;;6.93;;
11608;SDS011;5860;52.018;8.536;2022-08-01T04:46:07;7.77;;;6.97;;
11608;SDS011;5860;52.018;8.536;2022-08-01T04:48:38;8.10;;;6.93;;
11608;SDS011;5860;52.018;8.536;2022-08-01T04:51:16;7.33;;;6.60;;
11608;SDS011;5860;52.018;8.536;2022-08-01T04:53:43;7.43;;;6.67;;
11608;SDS011;5860;52.018;8.536;2022-08-01T04:56:12;8.33;;;7.50;;
11608;SDS011;5860;52.018;8.536;2022-08-01T04:58:40;8.93;;;7.30;;
11608;SDS011;5860;52.018;8.536;2022-08-01T05:01:08;7.90;;;7.10;;
11608;SDS011;5860;52.018;8.536;2022-08-01T05:03:36;8.97;;;7.33;;
11608;SDS011;5860;52.018;8.536;2022-08-01T05:06:04;10.47;;;8.23;;
11608;SDS011;5860;52.018;8.536;2022-08-01T05:08:31;10.07;;;8.20;;
11608;SDS011;5860;52.018;8.536;2022-08-01T05:10:58;8.83;;;7.93;;
11608;SDS011;5860;52.018;8.536;2022-08-01T05:13:25;10.77;;;7.93;;
11608;SDS011;5860;52.018;8.536;2022-08-01T05:15:52;8.70;;;7.10;;
11608;SDS011;5860;52.018;8.536;2022-08-01T05:18:19;9.13;;;7.47;;
11608;SDS011;5860;52.018;8.536;2022-08-01T05:20:53;8.70;;;7.47;;
11608;SDS011;5860;52.018;8.536;2022-08-01T05:23:20;9.40;;;7.67;;
11608;SDS011;5860;52.018;8.536;2022-08-01T05:26:07;9.17;;;7.93;;
11608;SDS011;5860;52.018;8.536;2022-08-01T05:28:34;8.63;;;7.67;;
11608;SDS011;5860;52.018;8.536;2022-08-01T05:31:01;8.83;;;7.93;;
11608;SDS011;5860;52.018;8.536;2022-08-01T05:33:29;7.27;;;6.53;;
11608;SDS011;5860;52.018;8.536;2022-08-01T05:35:56;7.33;;;6.60;;
11608;SDS011;5860;52.018;8.536;2022-08-01T05:38:23;6.93;;;6.23;;
11608;SDS011;5860;52.018;8.536;2022-08-01T05:40:49;8.83;;;7.93;;
11608;SDS011;5860;52.018;8.536;2022-08-01T05:43:16;7.57;;;6.47;;
11608;SDS011;5860;52.018;8.536;2022-08-01T05:45:43;6.47;;;5.83;;
11608;SDS011;5860;52.018;8.536;2022-08-01T05:48:12;8.00;;;5.97;;
11608;SDS011;5860;52.018;8.536;2022-08-01T05:50:39;6.80;;;6.13;;
11608;SDS011;5860;52.018;8.536;2022-08-01T05:53:06;6.80;;;6.20;;
11608;SDS011;5860;52.018;8.536;2022-08-01T05:55:32;6.00;;;5.40;;
11608;SDS011;5860;52.018;8.536;2022-08-01T05:58:01;6.13;;;5.53;;
11608;SDS011;5860;52.018;8.536;2022-08-01T06:00:28;7.40;;;5.70;;
11608;SDS011;5860;52.018;8.536;2022-08-01T06:02:55;6.50;;;5.60;;
11608;SDS011;5860;52.018;8.536;2022-08-01T06:05:22;6.33;;;5.50;;
11608;SDS011;5860;52.018;8.536;2022-08-01T06:07:49;6.68;;;5.88;;
11608;SDS011;5860;52.018;8.536;2022-08-01T06:10:16;6.60;;;5.80;;
11608;SDS011;5860;52.018;8.536;2022-08-01T06:12:43;5.93;;;5.35;;
11608;SDS011;5860;52.018;8.536;2022-08-01T06:15:10;5.78;;;5.28;;
11608;SDS011;5860;52.018;8.536;2022-08-01T06:17:37;5.95;;;5.13;;
11608;SDS011;5860;52.018;8.536;2022-08-01T06:20:05;5.73;;;5.20;;
11608;SDS011;5860;52.018;8.536;2022-08-01T06:22:32;7.10;;;5.65;;
11608;SDS011;5860;52.018;8.536;2022-08-01T06:24:59;6.03;;;5.03;;
11608;SDS011;5860;52.018;8.536;2022-08-01T06:27:26;6.70;;;5.95;;
11608;SDS011;5860;52.018;8.536;2022-08-01T06:29:53;6.30;;;4.67;;
11608;SDS011;5860;52.018;8.536;2022-08-01T06:32:21;5.95;;;4.82;;
11608;SDS011;5860;52.018;8.536;2022-08-01T06:34:53;5.95;;;5.22;;
11608;SDS011;5860;52.018;8.536;2022-08-01T06:37:21;5.25;;;4.75;;
11608;SDS011;5860;52.018;8.536;2022-08-01T06:39:48;5.40;;;4.90;;
11608;SDS011;5860;52.018;8.536;2022-08-01T06:42:16;5.45;;;4.95;;
11608;SDS011;5860;52.018;8.536;2022-08-01T06:44:43;5.50;;;4.88;;
11608;SDS011;5860;52.018;8.536;2022-08-01T06:47:10;5.43;;;4.63;;
11608;SDS011;5860;52.018;8.536;2022-08-01T06:49:37;4.63;;;4.22;;
11608;SDS011;5860;52.018;8.536;2022-08-01T06:52:04;5.40;;;4.50;;
11608;SDS011;5860;52.018;8.536;2022-08-01T06:54:32;6.75;;;5.03;;
11608;SDS011;5860;52.018;8.536;2022-08-01T06:56:59;5.93;;;4.70;;
11608;SDS011;5860;52.018;8.536;2022-08-01T06:59:25;6.80;;;4.60;;
11608;SDS011;5860;52.018;8.536;2022-08-01T07:01:52;5.07;;;4.60;;
11608;SDS011;5860;52.018;8.536;2022-08-01T07:04:19;4.95;;;4.10;;
11608;SDS011;5860;52.018;8.536;2022-08-01T07:06:46;5.30;;;4.80;;
11608;SDS011;5860;52.018;8.536;2022-08-01T07:09:13;5.13;;;4.13;;
11608;SDS011;5860;52.018;8.536;2022-08-01T07:11:40;5.75;;;4.55;;
11608;SDS011;5860;52.018;8.536;2022-08-01T07:14:07;4.55;;;3.92;;
11608;SDS011;5860;52.018;8.536;2022-08-01T07:16:34;3.07;;;2.77;;
11608;SDS011;5860;52.018;8.536;2022-08-01T07:19:02;3.97;;;2.93;;
11608;SDS011;5860;52.018;8.536;2022-08-01T07:21:29;2.40;;;2.20;;
11608;SDS011;5860;52.018;8.536;2022-08-01T07:24:06;4.50;;;2.70;;
11608;SDS011;5860;52.018;8.536;2022-08-01T07:26:43;2.53;;;2.33;;
11608;SDS011;5860;52.018;8.536;2022-08-01T07:29:28;2.90;;;2.60;;
11608;SDS011;5860;52.018;8.536;2022-08-01T07:31:56;3.37;;;2.70;;
11608;SDS011;5860;52.018;8.536;2022-08-01T07:34:24;3.53;;;2.70;;
11608;SDS011;5860;52.018;8.536;2022-08-01T07:36:52;3.67;;;2.30;;
11608;SDS011;5860;52.018;8.536;2022-08-01T07:39:19;3.33;;;2.00;;
11608;SDS011;5860;52.018;8.536;2022-08-01T07:41:46;2.00;;;1.80;;
11608;SDS011;5860;52.018;8.536;2022-08-01T07:44:33;5.53;;;2.30;;
11608;SDS011;5860;52.018;8.536;2022-08-01T07:47:00;1.97;;;1.70;;
11608;SDS011;5860;52.018;8.536;2022-08-01T07:49:27;2.70;;;1.70;;
11608;SDS011;5860;52.018;8.536;2022-08-01T07:51:54;1.35;;;1.25;;
11608;SDS011;5860;52.018;8.536;2022-08-01T07:54:30;2.60;;;1.60;;
11608;SDS011;5860;52.018;8.536;2022-08-01T07:57:01;1.70;;;1.60;;
11608;SDS011;5860;52.018;8.536;2022-08-01T07:59:28;1.50;;;1.40;;
11608;SDS011;5860;52.018;8.536;2022-08-01T08:01:56;2.97;;;1.50;;
11608;SDS011;5860;52.018;8.536;2022-08-01T08:04:23;2.67;;;1.48;;
11608;SDS011;5860;52.018;8.536;2022-08-01T08:06:50;3.88;;;1.60;;
11608;SDS011;5860;52.018;8.536;2022-08-01T08:09:19;3.00;;;1.80;;
11608;SDS011;5860;52.018;8.536;2022-08-01T08:11:46;1.85;;;1.60;;
11608;SDS011;5860;52.018;8.536;2022-08-01T08:14:14;2.40;;;1.70;;
11608;SDS011;5860;52.018;8.536;2022-08-01T08:16:41;2.08;;;1.83;;
11608;SDS011;5860;52.018;8.536;2022-08-01T08:19:09;2.33;;;1.50;;
11608;SDS011;5860;52.018;8.536;2022-08-01T08:21:37;3.63;;;1.58;;
11608;SDS011;5860;52.018;8.536;2022-08-01T08:24:04;2.63;;;1.77;;
11608;SDS011;5860;52.018;8.536;2022-08-01T08:26:53;3.60;;;1.98;;
11608;SDS011;5860;52.018;8.536;2022-08-01T08:29:22;2.33;;;1.60;;
11608;SDS011;5860;52.018;8.536;2022-08-01T08:31:49;2.42;;;1.95;;
11608;SDS011;5860;52.018;8.536;2022-08-01T08:34:18;2.25;;;1.73;;
11608;SDS011;5860;52.018;8.536;2022-08-01T08:36:45;4.13;;;2.00;;
11608;SDS011;5860;52.018;8.536;2022-08-01T08:39:15;2.42;;;1.48;;
11608;SDS011;5860;52.018;8.536;2022-08-01T08:41:45;2.53;;;1.70;;
11608;SDS011;5860;52.018;8.536;2022-08-01T08:44:15;2.85;;;1.88;;
11608;SDS011;5860;52.018;8.536;2022-08-01T08:46:51;3.13;;;1.90;;
11608;SDS011;5860;52.018;8.536;2022-08-01T08:49:20;3.33;;;1.60;;
11608;SDS011;5860;52.018;8.536;2022-08-01T08:52:00;3.25;;;1.50;;
11608;SDS011;5860;52.018;8.536;2022-08-01T08:54:29;1.73;;;1.48;;
11608;SDS011;5860;52.018;8.536;2022-08-01T08:57:00;2.92;;;1.60;;
11608;SDS011;5860;52.018;8.536;2022-08-01T08:59:27;4.85;;;1.70;;
11608;SDS011;5860;52.018;8.536;2022-08-01T09:01:54;3.55;;;1.65;;
11608;SDS011;5860;52.018;8.536;2022-08-01T09:04:23;3.72;;;1.92;;
11608;SDS011;5860;52.018;8.536;2022-08-01T09:06:52;2.53;;;1.90;;
11608;SDS011;5860;52.018;8.536;2022-08-01T09:09:19;2.92;;;1.92;;
11608;SDS011;5860;52.018;8.536;2022-08-01T09:11:46;3.95;;;1.77;;
11608;SDS011;5860;52.018;8.536;2022-08-01T09:14:23;4.07;;;1.80;;
11608;SDS011;5860;52.018;8.536;2022-08-01T09:19:42;2.63;;;2.00;;
11608;SDS011;5860;52.018;8.536;2022-08-01T09:22:12;3.92;;;2.40;;
11608;SDS011;5860;52.018;8.536;2022-08-01T09:25:18;4.40;;;2.20;;
11608;SDS011;5860;52.018;8.536;2022-08-01T09:27:37;3.35;;;2.70;;
11608;SDS011;5860;52.018;8.536;2022-08-01T09:30:18;3.10;;;2.10;;
11608;SDS011;5860;52.018;8.536;2022-08-01T09:35:36;5.15;;;2.22;;
11608;SDS011;5860;52.018;8.536;2022-08-01T09:38:16;2.45;;;1.60;;
11608;SDS011;5860;52.018;8.536;2022-08-01T09:40:45;1.88;;;1.40;;
11608;SDS011;5860;52.018;8.536;2022-08-01T09:43:14;1.98;;;1.55;;
11608;SDS011;5860;52.018;8.536;2022-08-01T09:45:41;3.42;;;1.25;;
11608;SDS011;5860;52.018;8.536;2022-08-01T09:48:14;2.67;;;1.27;;
11608;SDS011;5860;52.018;8.536;2022-08-01T09:50:48;3.33;;;1.50;;
11608;SDS011;5860;52.018;8.536;2022-08-01T09:53:17;2.63;;;1.40;;
11608;SDS011;5860;52.018;8.536;2022-08-01T09:56:01;1.55;;;1.20;;
11608;SDS011;5860;52.018;8.536;2022-08-01T09:58:59;1.95;;;1.30;;
11608;SDS011;5860;52.018;8.536;2022-08-01T10:01:28;1.95;;;1.27;;
11608;SDS011;5860;52.018;8.536;2022-08-01T10:04:09;1.77;;;1.10;;
11608;SDS011;5860;52.018;8.536;2022-08-01T10:06:46;2.05;;;1.40;;
11608;SDS011;5860;52.018;8.536;2022-08-01T10:09:30;4.20;;;1.30;;
11608;SDS011;5860;52.018;8.536;2022-08-01T10:12:06;2.40;;;1.00;;
11608;SDS011;5860;52.018;8.536;2022-08-01T10:14:41;2.45;;;1.00;;
11608;SDS011;5860;52.018;8.536;2022-08-01T10:17:18;2.70;;;1.38;;
11608;SDS011;5860;52.018;8.536;2022-08-01T10:19:47;1.80;;;1.10;;
11608;SDS011;5860;52.018;8.536;2022-08-01T10:22:17;2.25;;;1.17;;
11608;SDS011;5860;52.018;8.536;2022-08-01T10:24:46;1.80;;;1.23;;
11608;SDS011;5860;52.018;8.536;2022-08-01T10:27:16;2.10;;;1.65;;
11608;SDS011;5860;52.018;8.536;2022-08-01T10:29:59;2.30;;;1.10;;
11608;SDS011;5860;52.018;8.536;2022-08-01T10:32:48;2.05;;;1.30;;
11608;SDS011;5860;52.018;8.536;2022-08-01T10:35:16;1.52;;;1.27;;
11608;SDS011;5860;52.018;8.536;2022-08-01T10:38:04;3.33;;;1.25;;
11608;SDS011;5860;52.018;8.536;2022-08-01T10:40:39;5.72;;;1.30;;
11608;SDS011;5860;52.018;8.536;2022-08-01T10:43:09;1.33;;;1.20;;
11608;SDS011;5860;52.018;8.536;2022-08-01T10:45:37;1.58;;;1.20;;
11608;SDS011;5860;52.018;8.536;2022-08-01T10:50:55;2.83;;;1.60;;
11608;SDS011;5860;52.018;8.536;2022-08-01T10:53:25;1.67;;;1.50;;
11608;SDS011;5860;52.018;8.536;2022-08-01T10:56:08;2.28;;;1.42;;
11608;SDS011;5860;52.018;8.536;2022-08-01T10:58:42;3.78;;;1.40;;
11608;SDS011;5860;52.018;8.536;2022-08-01T11:01:17;1.83;;;1.20;;
11608;SDS011;5860;52.018;8.536;2022-08-01T11:09:42;2.08;;;1.48;;
11608;SDS011;5860;52.018;8.536;2022-08-01T11:20:04;1.48;;;1.38;;
11608;SDS011;5860;52.018;8.536;2022-08-01T11:28:24;1.92;;;1.73;;
11608;SDS011;5860;52.018;8.536;2022-08-01T11:39:10;3.53;;;1.90;;
11608;SDS011;5860;52.018;8.536;2022-08-01T11:41:39;4.05;;;2.50;;
11608;SDS011;5860;52.018;8.536;2022-08-01T11:54:39;3.08;;;2.35;;
11608;SDS011;5860;52.018;8.536;2022-08-01T11:57:15;4.35;;;2.13;;
11608;SDS011;5860;52.018;8.536;2022-08-01T11:59:49;6.07;;;2.22;;
11608;SDS011;5860;52.018;8.536;2022-08-01T12:02:32;2.97;;;1.85;;
11608;SDS011;5860;52.018;8.536;2022-08-01T12:05:01;3.63;;;2.10;;
11608;SDS011;5860;52.018;8.536;2022-08-01T12:07:37;2.38;;;2.00;;
11608;SDS011;5860;52.018;8.536;2022-08-01T12:10:06;3.00;;;2.15;;
11608;SDS011;5860;52.018;8.536;2022-08-01T12:12:46;2.67;;;2.25;;
11608;SDS011;5860;52.018;8.536;2022-08-01T12:15:18;4.72;;;2.10;;
11608;SDS011;5860;52.018;8.536;2022-08-01T12:17:49;2.53;;;2.10;;
11608;SDS011;5860;52.018;8.536;2022-08-01T12:20:25;4.03;;;2.35;;
11608;SDS011;5860;52.018;8.536;2022-08-01T12:22:56;5.32;;;2.25;;
11608;SDS011;5860;52.018;8.536;2022-08-01T12:25:25;3.42;;;2.47;;
11608;SDS011;5860;52.018;8.536;2022-08-01T12:27:51;3.13;;;2.85;;
11608;SDS011;5860;52.018;8.536;2022-08-01T12:30:22;4.05;;;2.90;;
11608;SDS011;5860;52.018;8.536;2022-08-01T12:32:51;4.15;;;2.97;;
11608;SDS011;5860;52.018;8.536;2022-08-01T12:35:20;5.13;;;2.80;;
11608;SDS011;5860;52.018;8.536;2022-08-01T12:37:50;4.03;;;2.92;;
11608;SDS011;5860;52.018;8.536;2022-08-01T12:40:44;6.05;;;3.05;;
11608;SDS011;5860;52.018;8.536;2022-08-01T12:43:19;3.90;;;2.90;;
11608;SDS011;5860;52.018;8.536;2022-08-01T12:45:54;5.82;;;3.55;;
11608;SDS011;5860;52.018;8.536;2022-08-01T12:48:23;4.38;;;3.60;;
11608;SDS011;5860;52.018;8.536;2022-08-01T12:50:51;6.63;;;3.67;;
11608;SDS011;5860;52.018;8.536;2022-08-01T12:53:19;6.82;;;3.97;;
11608;SDS011;5860;52.018;8.536;2022-08-01T12:55:48;6.45;;;4.10;;
11608;SDS011;5860;52.018;8.536;2022-08-01T12:58:30;4.68;;;3.45;;
11608;SDS011;5860;52.018;8.536;2022-08-01T13:01:04;7.85;;;3.38;;
11608;SDS011;5860;52.018;8.536;2022-08-01T13:03:33;5.07;;;3.10;;
11608;SDS011;5860;52.018;8.536;2022-08-01T13:06:00;4.82;;;2.80;;
11608;SDS011;5860;52.018;8.536;2022-08-01T13:08:35;5.53;;;3.88;;
11608;SDS011;5860;52.018;8.536;2022-08-01T13:11:08;5.93;;;3.58;;
11608;SDS011;5860;52.018;8.536;2022-08-01T13:13:40;4.30;;;3.30;;
11608;SDS011;5860;52.018;8.536;2022-08-01T13:16:09;3.65;;;3.10;;
11608;SDS011;5860;52.018;8.536;2022-08-01T13:18:57;4.57;;;3.13;;
11608;SDS011;5860;52.018;8.536;2022-08-01T13:21:25;5.00;;;3.15;;
11608;SDS011;5860;52.018;8.536;2022-08-01T13:29:07;5.35;;;2.80;;
11608;SDS011;5860;52.018;8.536;2022-08-01T13:31:35;6.10;;;2.80;;
11608;SDS011;5860;52.018;8.536;2022-08-01T13:34:04;4.38;;;2.58;;
11608;SDS011;5860;52.018;8.536;2022-08-01T13:36:31;6.93;;;2.67;;
11608;SDS011;5860;52.018;8.536;2022-08-01T13:38:58;6.55;;;2.70;;
11608;SDS011;5860;52.018;8.536;2022-08-01T13:41:45;5.40;;;2.58;;
11608;SDS011;5860;52.018;8.536;2022-08-01T13:44:12;3.08;;;2.60;;
11608;SDS011;5860;52.018;8.536;2022-08-01T13:46:41;5.15;;;2.65;;
11608;SDS011;5860;52.018;8.536;2022-08-01T13:49:15;5.60;;;2.85;;
11608;SDS011;5860;52.018;8.536;2022-08-01T13:51:44;4.78;;;2.70;;
11608;SDS011;5860;52.018;8.536;2022-08-01T13:54:12;4.55;;;2.40;;
11608;SDS011;5860;52.018;8.536;2022-08-01T13:56:39;3.97;;;3.03;;
11608;SDS011;5860;52.018;8.536;2022-08-01T13:59:06;6.88;;;2.33;;
11608;SDS011;5860;52.018;8.536;2022-08-01T14:01:34;4.22;;;2.22;;
11608;SDS011;5860;52.018;8.536;2022-08-01T14:04:01;2.92;;;2.30;;
11608;SDS011;5860;52.018;8.536;2022-08-01T14:06:29;5.30;;;2.63;;
11608;SDS011;5860;52.018;8.536;2022-08-01T14:08:58;4.75;;;2.45;;
11608;SDS011;5860;52.018;8.536;2022-08-01T14:11:26;4.43;;;2.58;;
11608;SDS011;5860;52.018;8.536;2022-08-01T14:14:02;4.15;;;2.30;;
11608;SDS011;5860;52.018;8.536;2022-08-01T14:16:29;3.67;;;2.40;;
11608;SDS011;5860;52.018;8.536;2022-08-01T14:18:56;5.13;;;1.92;;
11608;SDS011;5860;52.018;8.536;2022-08-01T14:21:23;3.70;;;2.20;;
11608;SDS011;5860;52.018;8.536;2022-08-01T14:23:50;3.38;;;2.42;;
11608;SDS011;5860;52.018;8.536;2022-08-01T14:26:17;4.10;;;3.00;;
11608;SDS011;5860;52.018;8.536;2022-08-01T14:28:44;3.88;;;2.42;;
11608;SDS011;5860;52.018;8.536;2022-08-01T14:31:11;4.55;;;2.63;;
11608;SDS011;5860;52.018;8.536;2022-08-01T14:33:38;6.55;;;2.15;;
11608;SDS011;5860;52.018;8.536;2022-08-01T14:36:05;2.97;;;2.08;;
11608;SDS011;5860;52.018;8.536;2022-08-01T14:38:52;3.83;;;2.13;;
11608;SDS011;5860;52.018;8.536;2022-08-01T14:41:25;3.05;;;1.98;;
11608;SDS011;5860;52.018;8.536;2022-08-01T14:43:53;4.57;;;2.13;;
11608;SDS011;5860;52.018;8.536;2022-08-01T14:46:20;2.63;;;1.73;;
11608;SDS011;5860;52.018;8.536;2022-08-01T14:48:47;3.35;;;1.80;;
11608;SDS011;5860;52.018;8.536;2022-08-01T14:51:14;2.88;;;2.00;;
11608;SDS011;5860;52.018;8.536;2022-08-01T14:53:40;4.72;;;2.20;;
11608;SDS011;5860;52.018;8.536;2022-08-01T14:56:14;4.10;;;2.03;;
11608;SDS011;5860;52.018;8.536;2022-08-01T14:58:41;3.75;;;2.25;;
11608;SDS011;5860;52.018;8.536;2022-08-01T15:01:08;4.30;;;2.25;;
11608;SDS011;5860;52.018;8.536;2022-08-01T15:03:35;5.28;;;3.08;;
11608;SDS011;5860;52.018;8.536;2022-08-01T15:06:01;5.50;;;2.92;;
11608;SDS011;5860;52.018;8.536;2022-08-01T15:08:29;6.57;;;2.67;;
11608;SDS011;5860;52.018;8.536;2022-08-01T15:10:56;5.97;;;2.45;;
11608;SDS011;5860;52.018;8.536;2022-08-01T15:13:23;5.95;;;3.05;;
11608;SDS011;5860;52.018;8.536;2022-08-01T15:15:50;6.53;;;2.50;;
11608;SDS011;5860;52.018;8.536;2022-08-01T15:18:16;3.80;;;2.40;;
11608;SDS011;5860;52.018;8.536;2022-08-01T15:20:43;6.82;;;2.67;;
11608;SDS011;5860;52.018;8.536;2022-08-01T15:23:11;4.63;;;2.30;;
11608;SDS011;5860;52.018;8.536;2022-08-01T15:25:38;6.25;;;2.72;;
11608;SDS011;5860;52.018;8.536;2022-08-01T15:28:08;8.45;;;2.88;;
11608;SDS011;5860;52.018;8.536;2022-08-01T15:30:35;5.60;;;2.83;;
11608;SDS011;5860;52.018;8.536;2022-08-01T15:33:03;5.53;;;2.60;;
11608;SDS011;5860;52.018;8.536;2022-08-01T15:35:30;6.50;;;2.83;;
11608;SDS011;5860;52.018;8.536;2022-08-01T15:37:57;7.85;;;3.00;;
11608;SDS011;5860;52.018;8.536;2022-08-01T15:40:24;6.45;;;3.35;;
11608;SDS011;5860;52.018;8.536;2022-08-01T15:42:52;6.35;;;2.80;;
11608;SDS011;5860;52.018;8.536;2022-08-01T15:45:19;6.05;;;2.95;;
11608;SDS011;5860;52.018;8.536;2022-08-01T15:48:07;5.53;;;2.28;;
11608;SDS011;5860;52.018;8.536;2022-08-01T15:50:34;6.03;;;2.40;;
11608;SDS011;5860;52.018;8.536;2022-08-01T15:53:03;6.93;;;2.60;;
11608;SDS011;5860;52.018;8.536;2022-08-01T15:55:34;8.10;;;3.25;;
11608;SDS011;5860;52.018;8.536;2022-08-01T15:58:03;6.20;;;3.40;;
11608;SDS011;5860;52.018;8.536;2022-08-01T16:00:30;8.48;;;2.50;;
11608;SDS011;5860;52.018;8.536;2022-08-01T16:03:04;5.85;;;2.60;;
11608;SDS011;5860;52.018;8.536;2022-08-01T16:05:32;6.60;;;2.78;;
11608;SDS011;5860;52.018;8.536;2022-08-01T16:08:04;4.93;;;2.33;;
11608;SDS011;5860;52.018;8.536;2022-08-01T16:10:31;5.93;;;2.63;;
11608;SDS011;5860;52.018;8.536;2022-08-01T16:12:58;7.95;;;2.40;;
11608;SDS011;5860;52.018;8.536;2022-08-01T16:15:32;8.07;;;2.78;;
11608;SDS011;5860;52.018;8.536;2022-08-01T16:18:03;5.20;;;2.90;;
11608;SDS011;5860;52.018;8.536;2022-08-01T16:20:31;7.93;;;3.05;;
11608;SDS011;5860;52.018;8.536;2022-08-01T16:22:58;5.22;;;2.40;;